sensor_id;sensor_type;location;lat;lon;timestamp;pressure;altitude;pressure_sealevel;temperature;humidity
35778;BME280;21899;42.662;23.316;2023-03-04T00:01:15;94419.25;;;5.76;100.00
35778;BME280;21899;42.662;23.316;2023-03-04T00:03:41;94418.97;;;5.81;100.00
35778;BME280;21899;42.662;23.316;2023-03-04T00:06:06;94422.06;;;5.83;100.00
35778;BME280;21899;42.662;23.316;2023-03-04T00:08:32;94418.16;;;5.77;100.00
35778;BME280;21899;42.662;23.316;2023-03-04T00:10:57;94419.31;;;5.79;100.00
35778;BME280;21899;42.662;23.316;2023-03-04T00:13:22;94408.91;;;5.71;100.00
35778;BME280;21899;42.662;23.316;2023-03-04T00:15:49;94413.41;;;5.67;100.00
35778;BME280;21899;42.662;23.316;2023-03-04T00:18:14;94416.75;;;5.64;100.00
35778;BME280;21899;42.662;23.316;2023-03-04T00:20:40;94412.44;;;5.56;100.00
35778;BME280;21899;42.662;23.316;2023-03-04T00:23:05;94397.84;;;5.46;100.00
35778;BME280;21899;42.662;23.316;2023-03-04T00:25:31;94400.00;;;5.41;100.00
35778;BME280;21899;42.662;23.316;2023-03-04T00:27:58;94403.59;;;5.29;100.00
35778;BME280;21899;42.662;23.316;2023-03-04T00:30:23;94401.22;;;5.24;100.00
35778;BME280;21899;42.662;23.316;2023-03-04T00:32:49;94400.94;;;5.29;100.00
35778;BME280;21899;42.662;23.316;2023-03-04T00:35:15;94398.34;;;5.32;100.00
35778;BME280;21899;42.662;23.316;2023-03-04T00:37:40;94386.00;;;5.21;100.00
35778;BME280;21899;42.662;23.316;2023-03-04T00:40:06;94405.22;;;5.33;100.00
35778;BME280;21899;42.662;23.316;2023-03-04T00:42:32;94404.66;;;5.44;100.00
35778;BME280;21899;42.662;23.316;2023-03-04T00:44:57;94398.56;;;5.43;100.00
35778;BME280;21899;42.662;23.316;2023-03-04T00:47:22;94387.88;;;5.40;100.00
35778;BME280;21899;42.662;23.316;2023-03-04T00:49:48;94399.44;;;5.51;100.00
35778;BME280;21899;42.662;23.316;2023-03-04T00:52:13;94402.03;;;5.47;100.00
35778;BME280;21899;42.662;23.316;2023-03-04T00:54:39;94389.59;;;5.51;100.00
35778;BME280;21899;42.662;23.316;2023-03-04T00:57:04;94389.38;;;5.60;100.00
35778;BME280;21899;42.662;23.316;2023-03-04T00:59:29;94390.19;;;5.64;100.00
35778;BME280;21899;42.662;23.316;2023-03-04T01:01:55;94399.88;;;5.75;100.00
35778;BME280;21899;42.662;23.316;2023-03-04T01:04:20;94395.34;;;5.76;100.00
35778;BME280;21899;42.662;23.316;2023-03-04T01:06:46;94380.97;;;5.77;100.00
35778;BME280;21899;42.662;23.316;2023-03-04T01:09:11;94398.31;;;5.90;100.00
35778;BME280;21899;42.662;23.316;2023-03-04T01:11:36;94393.81;;;5.94;100.00
35778;BME280;21899;42.662;23.316;2023-03-04T01:14:02;94380.94;;;5.96;100.00
35778;BME280;21899;42.662;23.316;2023-03-04T01:16:27;94388.75;;;6.08;100.00
35778;BME280;21899;42.662;23.316;2023-03-04T01:18:53;94386.47;;;6.10;100.00
35778;BME280;21899;42.662;23.316;2023-03-04T01:21:18;94385.72;;;6.09;100.00
35778;BME280;21899;42.662;23.316;2023-03-04T01:23:44;94371.09;;;5.96;100.00
35778;BME280;21899;42.662;23.316;2023-03-04T01:26:09;94378.41;;;6.03;100.00
35778;BME280;21899;42.662;23.316;2023-03-04T01:28:34;94375.38;;;6.04;100.00
35778;BME280;21899;42.662;23.316;2023-03-04T01:31:03;94368.13;;;6.01;100.00
35778;BME280;21899;42.662;23.316;2023-03-04T01:33:30;94366.22;;;6.02;100.00
35778;BME280;21899;42.662;23.316;2023-03-04T01:35:56;94371.66;;;6.09;100.00
35778;BME280;21899;42.662;23.316;2023-03-04T01:38:23;94372.78;;;6.08;100.00
35778;BME280;21899;42.662;23.316;2023-03-04T01:40:49;94363.84;;;5.93;100.00
35778;BME280;21899;42.662;23.316;2023-03-04T01:43:21;94362.69;;;5.72;100.00
35778;BME280;21899;42.662;23.316;2023-03-04T01:45:50;94367.72;;;5.58;100.00
35778;BME280;21899;42.662;23.316;2023-03-04T01:48:20;94359.22;;;5.49;100.00
35778;BME280;21899;42.662;23.316;2023-03-04T01:50:46;94363.78;;;5.48;100.00
35778;BME280;21899;42.662;23.316;2023-03-04T01:53:17;94358.03;;;5.46;100.00
35778;BME280;21899;42.662;23.316;2023-03-04T01:55:44;94360.47;;;5.55;100.00
35778;BME280;21899;42.662;23.316;2023-03-04T01:58:11;94361.34;;;5.62;100.00
35778;BME280;21899;42.662;23.316;2023-03-04T02:00:37;94349.50;;;5.56;100.00
35778;BME280;21899;42.662;23.316;2023-03-04T02:03:10;94352.50;;;5.55;100.00
35778;BME280;21899;42.662;23.316;2023-03-04T02:05:38;94357.53;;;5.60;100.00
35778;BME280;21899;42.662;23.316;2023-03-04T02:08:05;94363.19;;;5.58;100.00
35778;BME280;21899;42.662;23.316;2023-03-04T02:10:31;94349.91;;;5.58;100.00
35778;BME280;21899;42.662;23.316;2023-03-04T02:12:58;94348.97;;;5.70;100.00
35778;BME280;21899;42.662;23.316;2023-03-04T02:15:24;94352.09;;;5.75;100.00
35778;BME280;21899;42.662;23.316;2023-03-04T02:17:49;94346.78;;;5.75;100.00
35778;BME280;21899;42.662;23.316;2023-03-04T02:20:41;94336.13;;;5.72;100.00
35778;BME280;21899;42.662;23.316;2023-03-04T02:26:22;94338.81;;;5.53;100.00
35778;BME280;21899;42.662;23.316;2023-03-04T02:28:51;94341.75;;;5.48;100.00
35778;BME280;21899;42.662;23.316;2023-03-04T02:31:22;94353.50;;;5.47;100.00
35778;BME280;21899;42.662;23.316;2023-03-04T02:33:48;94348.06;;;5.40;100.00
35778;BME280;21899;42.662;23.316;2023-03-04T02:36:14;94340.38;;;5.34;100.00
35778;BME280;21899;42.662;23.316;2023-03-04T02:38:40;94339.53;;;5.30;100.00
35778;BME280;21899;42.662;23.316;2023-03-04T02:41:08;94341.63;;;5.41;100.00
35778;BME280;21899;42.662;23.316;2023-03-04T02:43:36;94338.44;;;5.31;100.00
35778;BME280;21899;42.662;23.316;2023-03-04T02:46:02;94337.72;;;5.34;100.00
35778;BME280;21899;42.662;23.316;2023-03-04T02:48:27;94326.59;;;5.25;100.00
35778;BME280;21899;42.662;23.316;2023-03-04T02:50:53;94337.59;;;5.27;100.00
35778;BME280;21899;42.662;23.316;2023-03-04T02:53:20;94327.50;;;5.14;100.00
35778;BME280;21899;42.662;23.316;2023-03-04T02:55:46;94335.13;;;5.15;100.00
35778;BME280;21899;42.662;23.316;2023-03-04T02:58:12;94324.94;;;4.98;100.00
35778;BME280;21899;42.662;23.316;2023-03-04T03:00:38;94330.22;;;4.98;100.00
35778;BME280;21899;42.662;23.316;2023-03-04T03:03:04;94330.09;;;4.91;100.00
35778;BME280;21899;42.662;23.316;2023-03-04T03:05:31;94334.28;;;4.92;100.00
35778;BME280;21899;42.662;23.316;2023-03-04T03:07:57;94330.63;;;4.81;100.00
35778;BME280;21899;42.662;23.316;2023-03-04T03:10:23;94323.38;;;4.78;100.00
35778;BME280;21899;42.662;23.316;2023-03-04T03:12:48;94318.28;;;4.70;100.00
35778;BME280;21899;42.662;23.316;2023-03-04T03:15:14;94338.03;;;4.72;100.00
35778;BME280;21899;42.662;23.316;2023-03-04T03:17:40;94337.63;;;4.70;100.00
35778;BME280;21899;42.662;23.316;2023-03-04T03:20:06;94338.75;;;4.69;100.00
35778;BME280;21899;42.662;23.316;2023-03-04T03:22:32;94333.38;;;4.66;100.00
35778;BME280;21899;42.662;23.316;2023-03-04T03:24:57;94332.44;;;4.58;100.00
35778;BME280;21899;42.662;23.316;2023-03-04T03:27:23;94329.94;;;4.46;100.00
35778;BME280;21899;42.662;23.316;2023-03-04T03:29:48;94334.53;;;4.49;100.00
35778;BME280;21899;42.662;23.316;2023-03-04T03:32:14;94321.13;;;4.42;100.00
35778;BME280;21899;42.662;23.316;2023-03-04T03:34:39;94318.81;;;4.41;100.00
35778;BME280;21899;42.662;23.316;2023-03-04T03:37:05;94329.84;;;4.43;100.00
35778;BME280;21899;42.662;23.316;2023-03-04T03:39:30;94324.56;;;4.27;100.00
35778;BME280;21899;42.662;23.316;2023-03-04T03:41:55;94329.59;;;4.32;100.00
35778;BME280;21899;42.662;23.316;2023-03-04T03:44:21;94327.66;;;4.29;100.00
35778;BME280;21899;42.662;23.316;2023-03-04T03:46:46;94321.50;;;4.25;100.00
35778;BME280;21899;42.662;23.316;2023-03-04T03:49:11;94328.69;;;4.25;100.00
35778;BME280;21899;42.662;23.316;2023-03-04T03:51:37;94317.59;;;4.19;100.00
35778;BME280;21899;42.662;23.316;2023-03-04T03:54:03;94306.41;;;4.10;100.00
35778;BME280;21899;42.662;23.316;2023-03-04T03:56:28;94313.59;;;4.10;100.00
35778;BME280;21899;42.662;23.316;2023-03-04T03:58:54;94291.81;;;4.00;100.00
35778;BME280;21899;42.662;23.316;2023-03-04T04:01:19;94306.25;;;4.03;100.00
35778;BME280;21899;42.662;23.316;2023-03-04T04:03:44;94305.91;;;4.05;100.00
35778;BME280;21899;42.662;23.316;2023-03-04T04:06:10;94305.56;;;4.06;100.00
35778;BME280;21899;42.662;23.316;2023-03-04T04:08:35;94300.03;;;3.95;100.00
35778;BME280;21899;42.662;23.316;2023-03-04T04:11:01;94301.91;;;3.95;100.00
35778;BME280;21899;42.662;23.316;2023-03-04T04:13:26;94303.03;;;3.94;100.00
35778;BME280;21899;42.662;23.316;2023-03-04T04:15:52;94292.69;;;3.89;100.00
35778;BME280;21899;42.662;23.316;2023-03-04T04:18:17;94301.06;;;3.91;100.00
35778;BME280;21899;42.662;23.316;2023-03-04T04:20:43;94304.41;;;3.88;100.00
35778;BME280;21899;42.662;23.316;2023-03-04T04:23:08;94302.19;;;3.90;100.00
35778;BME280;21899;42.662;23.316;2023-03-04T04:25:35;94296.72;;;3.83;100.00
35778;BME280;21899;42.662;23.316;2023-03-04T04:28:00;94304.50;;;3.91;100.00
35778;BME280;21899;42.662;23.316;2023-03-04T04:30:26;94295.50;;;3.80;100.00
35778;BME280;21899;42.662;23.316;2023-03-04T04:32:51;94310.13;;;3.90;100.00
35778;BME280;21899;42.662;23.316;2023-03-04T04:35:17;94310.78;;;3.87;100.00
35778;BME280;21899;42.662;23.316;2023-03-04T04:37:42;94302.72;;;3.80;100.00
35778;BME280;21899;42.662;23.316;2023-03-04T04:40:08;94303.38;;;3.77;100.00
35778;BME280;21899;42.662;23.316;2023-03-04T04:42:33;94302.72;;;3.80;100.00
35778;BME280;21899;42.662;23.316;2023-03-04T04:44:59;94311.00;;;3.78;100.00
35778;BME280;21899;42.662;23.316;2023-03-04T04:47:24;94300.72;;;3.77;100.00
35778;BME280;21899;42.662;23.316;2023-03-04T04:49:50;94294.06;;;3.67;100.00
35778;BME280;21899;42.662;23.316;2023-03-04T04:52:16;94294.84;;;3.68;100.00
35778;BME280;21899;42.662;23.316;2023-03-04T04:54:41;94304.66;;;3.67;100.00
35778;BME280;21899;42.662;23.316;2023-03-04T04:57:06;94305.34;;;3.64;100.00
35778;BME280;21899;42.662;23.316;2023-03-04T04:59:32;94311.41;;;3.65;100.00
35778;BME280;21899;42.662;23.316;2023-03-04T05:01:57;94310.13;;;3.59;100.00
35778;BME280;21899;42.662;23.316;2023-03-04T05:04:23;94321.75;;;3.70;100.00
35778;BME280;21899;42.662;23.316;2023-03-04T05:06:48;94318.31;;;3.69;100.00
35778;BME280;21899;42.662;23.316;2023-03-04T05:09:13;94334.47;;;3.80;100.00
35778;BME280;21899;42.662;23.316;2023-03-04T05:11:39;94328.94;;;3.85;100.00
35778;BME280;21899;42.662;23.316;2023-03-04T05:14:04;94337.88;;;3.96;100.00
35778;BME280;21899;42.662;23.316;2023-03-04T05:16:30;94333.50;;;4.03;100.00
35778;BME280;21899;42.662;23.316;2023-03-04T05:18:55;94335.28;;;4.15;100.00
35778;BME280;21899;42.662;23.316;2023-03-04T05:21:20;94332.53;;;4.27;100.00
35778;BME280;21899;42.662;23.316;2023-03-04T05:23:46;94327.38;;;4.34;100.00
35778;BME280;21899;42.662;23.316;2023-03-04T05:26:14;94339.06;;;4.49;100.00
35778;BME280;21899;42.662;23.316;2023-03-04T05:28:39;94343.19;;;4.65;100.00
35778;BME280;21899;42.662;23.316;2023-03-04T05:31:06;94325.75;;;4.64;100.00
35778;BME280;21899;42.662;23.316;2023-03-04T05:33:31;94344.69;;;4.82;100.00
35778;BME280;21899;42.662;23.316;2023-03-04T05:35:57;94337.22;;;4.87;100.00
35778;BME280;21899;42.662;23.316;2023-03-04T05:38:23;94331.63;;;4.92;100.00
35778;BME280;21899;42.662;23.316;2023-03-04T05:40:55;94342.09;;;5.04;100.00
35778;BME280;21899;42.662;23.316;2023-03-04T05:43:20;94347.97;;;5.13;100.00
35778;BME280;21899;42.662;23.316;2023-03-04T05:45:48;94354.16;;;5.21;100.00
35778;BME280;21899;42.662;23.316;2023-03-04T05:48:13;94349.75;;;5.28;100.00
35778;BME280;21899;42.662;23.316;2023-03-04T05:50:39;94346.53;;;5.39;100.00
35778;BME280;21899;42.662;23.316;2023-03-04T05:53:04;94355.09;;;5.51;100.00
35778;BME280;21899;42.662;23.316;2023-03-04T05:55:30;94361.28;;;5.59;100.00
35778;BME280;21899;42.662;23.316;2023-03-04T05:57:56;94360.59;;;5.62;100.00
35778;BME280;21899;42.662;23.316;2023-03-04T06:00:21;94358.34;;;5.64;100.00
35778;BME280;21899;42.662;23.316;2023-03-04T06:02:47;94364.91;;;5.70;100.00
35778;BME280;21899;42.662;23.316;2023-03-04T06:05:13;94363.50;;;5.76;100.00
35778;BME280;21899;42.662;23.316;2023-03-04T06:07:40;94356.22;;;5.73;100.00
35778;BME280;21899;42.662;23.316;2023-03-04T06:10:07;94366.50;;;5.74;100.00
35778;BME280;21899;42.662;23.316;2023-03-04T06:12:35;94364.06;;;5.66;100.00
35778;BME280;21899;42.662;23.316;2023-03-04T06:15:00;94364.50;;;5.68;100.00
35778;BME280;21899;42.662;23.316;2023-03-04T06:17:27;94369.16;;;5.52;100.00
35778;BME280;21899;42.662;23.316;2023-03-04T06:19:53;94370.25;;;5.51;100.00
35778;BME280;21899;42.662;23.316;2023-03-04T06:22:18;94377.09;;;5.52;100.00
35778;BME280;21899;42.662;23.316;2023-03-04T06:24:43;94378.22;;;5.51;100.00
35778;BME280;21899;42.662;23.316;2023-03-04T06:27:09;94377.81;;;5.49;100.00
35778;BME280;21899;42.662;23.316;2023-03-04T06:29:34;94370.94;;;5.67;100.00
35778;BME280;21899;42.662;23.316;2023-03-04T06:32:00;94366.63;;;5.81;100.00
35778;BME280;21899;42.662;23.316;2023-03-04T06:34:25;94377.34;;;5.85;100.00
35778;BME280;21899;42.662;23.316;2023-03-04T06:36:51;94377.75;;;5.87;100.00
35778;BME280;21899;42.662;23.316;2023-03-04T06:39:16;94381.53;;;5.86;100.00
35778;BME280;21899;42.662;23.316;2023-03-04T06:41:41;94376.34;;;5.93;100.00
35778;BME280;21899;42.662;23.316;2023-03-04T06:44:07;94379.34;;;6.14;100.00
35778;BME280;21899;42.662;23.316;2023-03-04T06:46:33;94381.97;;;6.36;100.00
35778;BME280;21899;42.662;23.316;2023-03-04T06:48:59;94378.44;;;6.55;100.00
35778;BME280;21899;42.662;23.316;2023-03-04T06:51:24;94385.81;;;6.39;100.00
35778;BME280;21899;42.662;23.316;2023-03-04T06:53:49;94384.88;;;6.28;100.00
35778;BME280;21899;42.662;23.316;2023-03-04T06:56:15;94385.75;;;6.35;100.00
35778;BME280;21899;42.662;23.316;2023-03-04T06:58:41;94389.69;;;6.45;100.00
35778;BME280;21899;42.662;23.316;2023-03-04T07:01:14;94390.72;;;6.63;100.00
35778;BME280;21899;42.662;23.316;2023-03-04T07:03:40;94384.44;;;6.48;100.00
35778;BME280;21899;42.662;23.316;2023-03-04T07:06:06;94398.91;;;6.51;100.00
35778;BME280;21899;42.662;23.316;2023-03-04T07:08:32;94391.44;;;6.34;100.00
35778;BME280;21899;42.662;23.316;2023-03-04T07:10:57;94387.72;;;6.16;100.00
35778;BME280;21899;42.662;23.316;2023-03-04T07:13:22;94392.38;;;6.22;100.00
35778;BME280;21899;42.662;23.316;2023-03-04T07:15:48;94393.97;;;6.27;100.00
35778;BME280;21899;42.662;23.316;2023-03-04T07:18:13;94399.41;;;6.34;100.00
35778;BME280;21899;42.662;23.316;2023-03-04T07:20:38;94390.41;;;6.42;100.00
35778;BME280;21899;42.662;23.316;2023-03-04T07:23:04;94410.34;;;6.55;100.00
35778;BME280;21899;42.662;23.316;2023-03-04T07:25:29;94402.84;;;6.60;100.00
35778;BME280;21899;42.662;23.316;2023-03-04T07:27:55;94400.22;;;6.38;100.00
35778;BME280;21899;42.662;23.316;2023-03-04T07:30:20;94392.13;;;6.31;100.00
35778;BME280;21899;42.662;23.316;2023-03-04T07:32:45;94397.50;;;6.34;100.00
35778;BME280;21899;42.662;23.316;2023-03-04T07:35:11;94401.41;;;6.40;100.00
35778;BME280;21899;42.662;23.316;2023-03-04T07:37:36;94402.06;;;6.34;100.00
35778;BME280;21899;42.662;23.316;2023-03-04T07:40:02;94394.09;;;6.34;100.00
35778;BME280;21899;42.662;23.316;2023-03-04T07:42:28;94404.00;;;6.37;100.00
35778;BME280;21899;42.662;23.316;2023-03-04T07:44:53;94396.59;;;6.49;100.00
35778;BME280;21899;42.662;23.316;2023-03-04T07:47:19;94405.88;;;6.59;100.00
35778;BME280;21899;42.662;23.316;2023-03-04T07:49:45;94394.63;;;6.69;100.00
35778;BME280;21899;42.662;23.316;2023-03-04T07:52:10;94395.22;;;6.85;100.00
35778;BME280;21899;42.662;23.316;2023-03-04T07:54:38;94383.03;;;7.14;100.00
35778;BME280;21899;42.662;23.316;2023-03-04T07:57:03;94386.41;;;7.40;98.91
35778;BME280;21899;42.662;23.316;2023-03-04T07:59:29;94396.47;;;7.57;97.78
35778;BME280;21899;42.662;23.316;2023-03-04T08:01:54;94394.91;;;7.53;96.72
35778;BME280;21899;42.662;23.316;2023-03-04T08:04:19;94398.75;;;7.59;94.56
35778;BME280;21899;42.662;23.316;2023-03-04T08:06:45;94392.28;;;7.56;94.58
35778;BME280;21899;42.662;23.316;2023-03-04T08:09:12;94388.72;;;7.45;94.13
35778;BME280;21899;42.662;23.316;2023-03-04T08:11:38;94387.31;;;7.55;94.64
35778;BME280;21899;42.662;23.316;2023-03-04T08:14:03;94391.88;;;7.54;93.26
35778;BME280;21899;42.662;23.316;2023-03-04T08:16:29;94394.28;;;7.66;92.18
35778;BME280;21899;42.662;23.316;2023-03-04T08:18:58;94390.25;;;7.79;92.20
35778;BME280;21899;42.662;23.316;2023-03-04T08:21:25;94393.72;;;7.87;91.10
35778;BME280;21899;42.662;23.316;2023-03-04T08:23:52;94395.31;;;7.91;90.50
35778;BME280;21899;42.662;23.316;2023-03-04T08:26:21;94390.03;;;7.98;89.70
35778;BME280;21899;42.662;23.316;2023-03-04T08:28:47;94388.50;;;7.97;90.02
35778;BME280;21899;42.662;23.316;2023-03-04T08:31:14;94382.81;;;7.99;89.56
35778;BME280;21899;42.662;23.316;2023-03-04T08:33:39;94394.59;;;7.98;90.42
35778;BME280;21899;42.662;23.316;2023-03-04T08:36:06;94383.22;;;8.01;89.16
35778;BME280;21899;42.662;23.316;2023-03-04T08:38:31;94373.66;;;8.00;88.66
35778;BME280;21899;42.662;23.316;2023-03-04T08:40:57;94387.59;;;7.83;88.79
35778;BME280;21899;42.662;23.316;2023-03-04T08:43:24;94385.25;;;7.74;89.52
35778;BME280;21899;42.662;23.316;2023-03-04T08:45:51;94372.25;;;7.69;89.90
35778;BME280;21899;42.662;23.316;2023-03-04T08:48:17;94386.09;;;7.85;89.73
35778;BME280;21899;42.662;23.316;2023-03-04T08:50:44;94369.44;;;7.95;89.52
35778;BME280;21899;42.662;23.316;2023-03-04T08:53:10;94370.28;;;8.03;88.36
35778;BME280;21899;42.662;23.316;2023-03-04T08:55:37;94378.34;;;8.14;87.94
35778;BME280;21899;42.662;23.316;2023-03-04T08:58:02;94381.56;;;8.30;86.61
35778;BME280;21899;42.662;23.316;2023-03-04T09:00:28;94370.56;;;8.31;85.56
35778;BME280;21899;42.662;23.316;2023-03-04T09:02:53;94366.03;;;8.39;84.98
35778;BME280;21899;42.662;23.316;2023-03-04T09:05:20;94356.34;;;8.71;83.66
35778;BME280;21899;42.662;23.316;2023-03-04T09:07:45;94372.50;;;8.99;82.12
35778;BME280;21899;42.662;23.316;2023-03-04T09:10:12;94362.19;;;8.97;82.00
35778;BME280;21899;42.662;23.316;2023-03-04T09:12:37;94371.00;;;9.05;81.74
35778;BME280;21899;42.662;23.316;2023-03-04T09:15:03;94367.91;;;8.99;80.50
35778;BME280;21899;42.662;23.316;2023-03-04T09:17:30;94362.56;;;8.92;79.99
35778;BME280;21899;42.662;23.316;2023-03-04T09:19:55;94354.59;;;9.03;79.44
35778;BME280;21899;42.662;23.316;2023-03-04T09:22:21;94361.47;;;9.04;80.90
35778;BME280;21899;42.662;23.316;2023-03-04T09:24:46;94358.84;;;9.18;78.89
35778;BME280;21899;42.662;23.316;2023-03-04T09:27:11;94362.75;;;9.38;77.96
35778;BME280;21899;42.662;23.316;2023-03-04T09:29:37;94353.59;;;9.39;77.40
35778;BME280;21899;42.662;23.316;2023-03-04T09:32:02;94357.88;;;9.61;77.06
35778;BME280;21899;42.662;23.316;2023-03-04T09:34:28;94349.09;;;9.82;76.16
35778;BME280;21899;42.662;23.316;2023-03-04T09:36:53;94351.84;;;10.06;74.19
35778;BME280;21899;42.662;23.316;2023-03-04T09:39:18;94345.75;;;10.09;73.87
35778;BME280;21899;42.662;23.316;2023-03-04T09:41:48;94352.25;;;10.22;73.38
35778;BME280;21899;42.662;23.316;2023-03-04T09:44:30;94357.59;;;10.22;73.22
35778;BME280;21899;42.662;23.316;2023-03-04T09:47:01;94343.84;;;10.34;72.48
35778;BME280;21899;42.662;23.316;2023-03-04T09:49:29;94343.06;;;10.37;72.13
35778;BME280;21899;42.662;23.316;2023-03-04T09:52:09;94335.75;;;10.73;70.83
35778;BME280;21899;42.662;23.316;2023-03-04T09:57:52;94331.50;;;10.93;68.20
35778;BME280;21899;42.662;23.316;2023-03-04T10:00:22;94338.81;;;10.82;68.09
35778;BME280;21899;42.662;23.316;2023-03-04T10:05:59;94336.84;;;10.97;67.11
35778;BME280;21899;42.662;23.316;2023-03-04T10:08:49;94331.06;;;11.12;67.72
35778;BME280;21899;42.662;23.316;2023-03-04T10:11:22;94319.56;;;11.19;66.94
35778;BME280;21899;42.662;23.316;2023-03-04T10:16:20;94326.41;;;12.03;64.49
35778;BME280;21899;42.662;23.316;2023-03-04T10:19:00;94319.13;;;12.51;62.23
35778;BME280;21899;42.662;23.316;2023-03-04T10:21:48;94304.94;;;12.50;59.71
35778;BME280;21899;42.662;23.316;2023-03-04T10:24:17;94311.53;;;12.42;60.14
35778;BME280;21899;42.662;23.316;2023-03-04T10:26:45;94304.81;;;12.20;60.59
35778;BME280;21899;42.662;23.316;2023-03-04T10:29:16;94303.16;;;12.33;60.54
35778;BME280;21899;42.662;23.316;2023-03-04T10:31:43;94297.50;;;12.24;60.20
35778;BME280;21899;42.662;23.316;2023-03-04T10:34:10;94294.44;;;12.22;59.88
35778;BME280;21899;42.662;23.316;2023-03-04T10:39:10;94293.63;;;11.77;60.65
35778;BME280;21899;42.662;23.316;2023-03-04T10:41:36;94286.66;;;11.15;62.65
35778;BME280;21899;42.662;23.316;2023-03-04T10:46:39;94279.94;;;10.72;66.58
35778;BME280;21899;42.662;23.316;2023-03-04T10:49:05;94277.25;;;10.79;67.03
35778;BME280;21899;42.662;23.316;2023-03-04T10:51:31;94276.84;;;10.77;67.08
35778;BME280;21899;42.662;23.316;2023-03-04T10:54:06;94276.53;;;10.46;69.41
35778;BME280;21899;42.662;23.316;2023-03-04T10:56:40;94270.47;;;10.07;70.27
35778;BME280;21899;42.662;23.316;2023-03-04T10:59:32;94275.03;;;9.89;71.51
35778;BME280;21899;42.662;23.316;2023-03-04T11:02:00;94264.34;;;9.75;73.43
35778;BME280;21899;42.662;23.316;2023-03-04T11:04:31;94260.91;;;9.85;73.49
35778;BME280;21899;42.662;23.316;2023-03-04T11:06:57;94246.00;;;9.77;73.52
35778;BME280;21899;42.662;23.316;2023-03-04T11:09:27;94241.44;;;9.57;74.25
35778;BME280;21899;42.662;23.316;2023-03-04T11:11:54;94249.84;;;9.55;75.44
35778;BME280;21899;42.662;23.316;2023-03-04T11:16:58;94241.41;;;9.64;76.06
35778;BME280;21899;42.662;23.316;2023-03-04T11:19:34;94239.16;;;9.76;72.76
35778;BME280;21899;42.662;23.316;2023-03-04T11:22:02;94227.69;;;9.58;73.12
35778;BME280;21899;42.662;23.316;2023-03-04T11:24:29;94227.69;;;9.62;73.39
35778;BME280;21899;42.662;23.316;2023-03-04T11:27:18;94223.88;;;9.66;73.63
35778;BME280;21899;42.662;23.316;2023-03-04T11:30:01;94216.25;;;9.65;74.87
35778;BME280;21899;42.662;23.316;2023-03-04T11:32:32;94201.31;;;9.95;74.78
35778;BME280;21899;42.662;23.316;2023-03-04T11:35:15;94213.94;;;9.74;74.03
35778;BME280;21899;42.662;23.316;2023-03-04T11:37:49;94208.22;;;9.86;74.04
35778;BME280;21899;42.662;23.316;2023-03-04T11:40:28;94207.09;;;10.08;73.86
35778;BME280;21899;42.662;23.316;2023-03-04T11:43:11;94203.59;;;10.21;75.91
35778;BME280;21899;42.662;23.316;2023-03-04T11:48:44;94197.09;;;10.29;73.51
35778;BME280;21899;42.662;23.316;2023-03-04T11:51:19;94199.34;;;10.38;72.63
35778;BME280;21899;42.662;23.316;2023-03-04T11:56:34;94191.31;;;10.38;70.68
35778;BME280;21899;42.662;23.316;2023-03-04T11:59:43;94189.44;;;10.38;70.54
35778;BME280;21899;42.662;23.316;2023-03-04T12:02:23;94189.41;;;10.45;70.71
35778;BME280;21899;42.662;23.316;2023-03-04T12:51:06;94145.53;;;12.00;62.35
35778;BME280;21899;42.662;23.316;2023-03-04T12:56:20;94136.44;;;11.91;61.67
35778;BME280;21899;42.662;23.316;2023-03-04T12:58:46;94137.44;;;11.66;62.15
35778;BME280;21899;42.662;23.316;2023-03-04T13:01:26;94130.25;;;11.53;62.50
35778;BME280;21899;42.662;23.316;2023-03-04T13:04:07;94119.13;;;11.54;63.39
35778;BME280;21899;42.662;23.316;2023-03-04T13:07:19;94125.16;;;11.69;63.05
35778;BME280;21899;42.662;23.316;2023-03-04T13:12:15;94114.72;;;12.15;61.43
35778;BME280;21899;42.662;23.316;2023-03-04T13:17:41;94108.03;;;11.97;59.48
35778;BME280;21899;42.662;23.316;2023-03-04T13:20:19;94113.13;;;11.88;60.88
35778;BME280;21899;42.662;23.316;2023-03-04T13:22:56;94107.16;;;11.69;61.88
35778;BME280;21899;42.662;23.316;2023-03-04T13:36:02;94097.53;;;11.72;63.14
35778;BME280;21899;42.662;23.316;2023-03-04T13:38:32;94103.31;;;11.70;62.04
35778;BME280;21899;42.662;23.316;2023-03-04T13:43:26;94094.56;;;11.63;63.01
35778;BME280;21899;42.662;23.316;2023-03-04T13:45:52;94098.81;;;11.57;62.47
35778;BME280;21899;42.662;23.316;2023-03-04T13:48:27;94086.63;;;11.49;63.20
35778;BME280;21899;42.662;23.316;2023-03-04T13:50:54;94088.31;;;11.29;64.82
35778;BME280;21899;42.662;23.316;2023-03-04T13:53:36;94091.38;;;11.31;67.11
35778;BME280;21899;42.662;23.316;2023-03-04T13:56:11;94084.56;;;11.23;67.37
35778;BME280;21899;42.662;23.316;2023-03-04T13:58:38;94077.25;;;11.27;67.68
35778;BME280;21899;42.662;23.316;2023-03-04T14:01:04;94071.94;;;11.23;67.05
35778;BME280;21899;42.662;23.316;2023-03-04T14:03:34;94082.13;;;11.39;67.14
35778;BME280;21899;42.662;23.316;2023-03-04T14:08:36;94075.75;;;11.22;66.43
35778;BME280;21899;42.662;23.316;2023-03-04T14:11:02;94072.25;;;11.29;66.02
35778;BME280;21899;42.662;23.316;2023-03-04T14:13:27;94071.06;;;11.37;66.38
35778;BME280;21899;42.662;23.316;2023-03-04T14:15:57;94061.78;;;11.45;65.45
35778;BME280;21899;42.662;23.316;2023-03-04T14:18:23;94063.31;;;11.46;65.66
35778;BME280;21899;42.662;23.316;2023-03-04T14:20:50;94073.16;;;11.56;65.06
35778;BME280;21899;42.662;23.316;2023-03-04T14:23:30;94066.28;;;11.55;64.65
35778;BME280;21899;42.662;23.316;2023-03-04T14:26:13;94065.81;;;11.67;64.56
35778;BME280;21899;42.662;23.316;2023-03-04T14:28:48;94059.03;;;11.52;64.57
35778;BME280;21899;42.662;23.316;2023-03-04T14:31:18;94059.50;;;11.47;65.31